Date,TemperatureHighF,TemperatureAvgF,TemperatureLowF,DewpointHighF,DewpointAvgF,DewpointLowF,HumidityHigh,HumidityAvg,HumidityLow,PressureMaxIn,PressureMinIn,WindSpeedMaxMPH,WindSpeedAvgMPH,GustSpeedMaxMPH,PrecipitationSumIn
2013-2-1,27.0,22.3,19.0,-99.9,-99.9,-99.9,0,0,100,0.00,40.00,53,34,63,0.00
2013-2-2,34.0,23.3,18.0,-99.9,-99.9,-99.9,0,0,100,0.00,40.00,46,33,58,0.00
2013-2-3,36.0,27.2,16.0,-99.9,-99.9,-99.9,0,0,100,0.00,40.00,29,17,41,0.00
2013-2-4,34.0,26.2,19.0,-99.9,-99.9,-99.9,0,0,100,0.00,40.00,50,27,52,0.00
2013-2-5,39.0,30.9,23.0,-99.9,-99.9,-99.9,0,0,100,0.00,40.00,31,19,43,0.00
2013-2-6,34.0,27.6,14.0,-99.9,-99.9,-99.9,0,0,100,0.00,40.00,28,17,37,0.00
2013-2-7,37.0,22.1,12.0,-99.9,-99.9,-99.9,0,0,100,0.00,40.00,24,13,32,0.00
2013-2-8,41.0,27.7,7.0,-99.9,-99.9,-99.9,0,0,100,0.00,40.00,23,10,27,0.00
2013-2-9,23.0,18.2,14.0,-99.9,-99.9,-99.9,0,0,100,0.00,40.00,20,12,26,0.00
2013-2-10,14.0,10.6,1.0,-99.9,-99.9,-99.9,0,0,100,0.00,40.00,28,21,34,0.00
2013-2-11,16.0,4.1,-6.0,-99.9,-99.9,-99.9,0,0,100,0.00,40.00,24,10,31,0.00
2013-2-12,18.0,10.3,1.0,-99.9,-99.9,-99.9,0,0,100,0.00,40.00,36,27,47,0.00
2013-2-13,25.0,17.9,12.0,-99.9,-99.9,-99.9,0,0,100,0.00,40.00,53,35,57,0.00
2013-2-14,23.0,16.4,7.0,-99.9,-99.9,-99.9,0,0,100,0.00,40.00,42,22,52,0.00
2013-2-15,18.0,14.3,3.0,-99.9,-99.9,-99.9,0,0,100,0.00,40.00,50,27,55,0.00
2013-2-16,34.0,24.4,18.0,-99.9,-99.9,-99.9,0,0,100,0.00,40.00,55,37,58,0.00
2013-2-17,36.0,26.6,16.0,-99.9,-99.9,-99.9,0,0,100,0.00,40.00,41,27,50,0.00
2013-2-18,18.0,13.2,9.0,-99.9,-99.9,-99.9,0,0,100,0.00,40.00,34,21,45,0.00
2013-2-19,30.0,17.3,1.0,-99.9,-99.9,-99.9,0,0,100,0.00,40.00,19,8,19,0.00
2013-2-20,37.0,19.1,5.0,-99.9,-99.9,-99.9,0,0,100,0.00,40.00,18,7,21,0.00
2013-2-21,18.0,12.5,9.0,-99.9,-99.9,-99.9,0,0,100,0.00,40.00,26,12,29,0.00
2013-2-22,18.0,11.5,9.0,-99.9,-99.9,-99.9,0,0,100,0.00,40.00,38,24,50,0.00
2013-2-23,28.0,17.4,10.0,-99.9,-99.9,-99.9,0,0,100,0.00,40.00,50,27,52,0.00
2013-2-24,21.0,12.9,5.0,-99.9,-99.9,-99.9,0,0,100,0.00,40.00,27,14,34,0.00
2013-2-25,23.0,13.0,1.0,-99.9,-99.9,-99.9,0,0,100,0.00,40.00,34,23,37,0.00
2013-2-26,18.0,14.3,9.0,-99.9,-99.9,-99.9,0,0,100,0.00,40.00,32,23,41,0.00
2013-2-27,16.0,9.1,3.0,-99.9,-99.9,-99.9,0,0,100,0.00,40.00,34,22,38,0.00
2013-2-28,21.0,13.5,7.0,-99.9,-99.9,-99.9,0,0,100,0.00,40.00,50,30,50,0.00